Main page
METAR-TAF:

METAR-TAF

Airports :

Sønderborg Airport

Sønderborg, Denmark

latitude: 54-58N, longitude: 009-47E, elevation: 7 m

Current weather observation

The report was made 18 minutes ago, at 00:20 UTC
Wind 4 kt from the South
Temperature 2°C
Humidity 75%
Pressure 1022 hPa
Visibility 10 km or more

METAR: EKSB 230020Z AUTO 19004KT 9999 BKN044/// 02/M02 Q1022

Time: 02:38 (00:38 UTC)

Forecast

The report was made 6 hours and 52 minutes ago, at 17:46 UTC
Forecast valid from 22 at 18 UTC to 22 at 22 UTC
Wind 8 kt from the North/Northeast
Visibility 10 km or more
Scattered clouds at a height of 4000 ft

TAF: EKSB 221746Z 2218/2222 03008KT 9999 SCT040

Weather observations and forecasts of more than 4000 airports (METAR and TAF reports).

The available stations are represented by yellow and red dots on the map.

Hover mouse over dot to see the name of the station.

Then click to see weather observations and forecasts.

To change the map : click on the green buttons with a black cross to zoom in, on the green button with a dash to zoom out, or on the green arrows for adjacent maps.


METAR-TAF: